Tambov, Russia
Current Conditions -  °F | °C
As of 4:30 PM on Saturday 20 Dec 2014 (Local Time) from UUOO Reporting Station
Light Rain Light Rain  
Wind Chill: 33°   Ceiling: 600
Heat Index: 39°   Visibility: 4mi
Dew Point: 37°   Wind: 9mph
Humidity: 93%   Direction: 240°WSW
Pressure: 29.59"   Gusts: 16mph
Location:  52.73°N, 41.43°E
Report Text: UUOO 201330Z 24004G07MPS 7000 -RA OVC006 04/03 Q1002 NOSIG RMK30290148
Loading
Personal Weather Stations






























Interactive Weather Map New forecast layout! Learn more

10-Day Weather Forecast

Advertisements
Track Severe Weather on mobile